sensor_id;sensor_type;location;lat;lon;timestamp;pressure;altitude;pressure_sealevel;temperature;humidity
55759;BME280;41678;52.126;20.664;2023-11-19T00:00:17;101015.63;;;-0.33;100.00
55759;BME280;41678;52.126;20.664;2023-11-19T00:05:56;101021.94;;;-0.26;100.00
55759;BME280;41678;52.126;20.664;2023-11-19T00:11:16;101024.53;;;-0.26;100.00
55759;BME280;41678;52.126;20.664;2023-11-19T00:16:35;101009.53;;;-0.33;100.00
55759;BME280;41678;52.126;20.664;2023-11-19T00:21:54;101001.78;;;-0.33;100.00
55759;BME280;41678;52.126;20.664;2023-11-19T00:27:14;101009.53;;;-0.33;100.00
55759;BME280;41678;52.126;20.664;2023-11-19T00:32:38;100997.41;;;-0.34;100.00
55759;BME280;41678;52.126;20.664;2023-11-19T00:37:58;100993.13;;;-0.34;100.00
55759;BME280;41678;52.126;20.664;2023-11-19T00:43:18;100978.47;;;-0.33;100.00
55759;BME280;41678;52.126;20.664;2023-11-19T00:48:41;100945.41;;;-0.40;100.00
55759;BME280;41678;52.126;20.664;2023-11-19T00:54:01;100952.59;;;-0.33;100.00
55759;BME280;41678;52.126;20.664;2023-11-19T00:59:20;100944.19;;;-0.29;100.00
55759;BME280;41678;52.126;20.664;2023-11-19T01:04:40;100937.34;;;-0.27;100.00
55759;BME280;41678;52.126;20.664;2023-11-19T01:10:00;100919.91;;;-0.31;100.00
55759;BME280;41678;52.126;20.664;2023-11-19T01:15:20;100920.88;;;-0.29;100.00
55759;BME280;41678;52.126;20.664;2023-11-19T01:20:40;100909.56;;;-0.31;100.00
55759;BME280;41678;52.126;20.664;2023-11-19T01:25:59;100905.28;;;-0.31;100.00
55759;BME280;41678;52.126;20.664;2023-11-19T01:31:19;100912.44;;;-0.25;100.00
55759;BME280;41678;52.126;20.664;2023-11-19T01:36:39;100910.69;;;-0.24;100.00
55759;BME280;41678;52.126;20.664;2023-11-19T01:41:59;100892.25;;;-0.32;100.00
55759;BME280;41678;52.126;20.664;2023-11-19T01:47:18;100893.03;;;-0.35;100.00
55759;BME280;41678;52.126;20.664;2023-11-19T01:52:39;100887.97;;;-0.32;100.00
55759;BME280;41678;52.126;20.664;2023-11-19T01:57:59;100884.56;;;-0.31;100.00
55759;BME280;41678;52.126;20.664;2023-11-19T02:03:21;100869.78;;;-0.33;100.00
55759;BME280;41678;52.126;20.664;2023-11-19T02:08:42;100862.72;;;-0.37;100.00
55759;BME280;41678;52.126;20.664;2023-11-19T02:14:02;100862.03;;;-0.33;100.00
55759;BME280;41678;52.126;20.664;2023-11-19T02:19:23;100853.41;;;-0.34;100.00
55759;BME280;41678;52.126;20.664;2023-11-19T02:24:44;100840.13;;;-0.41;100.00
55759;BME280;41678;52.126;20.664;2023-11-19T02:30:06;100860.34;;;-0.33;100.00
55759;BME280;41678;52.126;20.664;2023-11-19T02:35:28;100843.91;;;-0.33;100.00
55759;BME280;41678;52.126;20.664;2023-11-19T02:40:51;100840.38;;;-0.35;100.00
55759;BME280;41678;52.126;20.664;2023-11-19T02:46:11;100831.81;;;-0.34;100.00
55759;BME280;41678;52.126;20.664;2023-11-19T02:51:30;100817.06;;;-0.37;100.00
55759;BME280;41678;52.126;20.664;2023-11-19T02:56:50;100805.88;;;-0.36;100.00
55759;BME280;41678;52.126;20.664;2023-11-19T03:02:14;100782.44;;;-0.39;100.00
55759;BME280;41678;52.126;20.664;2023-11-19T03:07:36;100773.81;;;-0.39;100.00
55759;BME280;41678;52.126;20.664;2023-11-19T03:12:56;100778.28;;;-0.35;100.00
55759;BME280;41678;52.126;20.664;2023-11-19T03:18:16;100765.34;;;-0.35;100.00
55759;BME280;41678;52.126;20.664;2023-11-19T03:23:36;100760.28;;;-0.32;100.00
55759;BME280;41678;52.126;20.664;2023-11-19T03:28:56;100747.50;;;-0.29;100.00
55759;BME280;41678;52.126;20.664;2023-11-19T03:34:16;100731.00;;;-0.31;100.00
55759;BME280;41678;52.126;20.664;2023-11-19T03:39:37;100721.63;;;-0.29;100.00
55759;BME280;41678;52.126;20.664;2023-11-19T03:44:57;100723.41;;;-0.26;100.00
55759;BME280;41678;52.126;20.664;2023-11-19T03:50:21;100716.56;;;-0.26;100.00
55759;BME280;41678;52.126;20.664;2023-11-19T03:55:40;100699.38;;;-0.24;100.00
55759;BME280;41678;52.126;20.664;2023-11-19T04:01:00;100692.47;;;-0.23;100.00
55759;BME280;41678;52.126;20.664;2023-11-19T04:06:19;100682.09;;;-0.25;100.00
55759;BME280;41678;52.126;20.664;2023-11-19T04:11:40;100671.84;;;-0.22;100.00
55759;BME280;41678;52.126;20.664;2023-11-19T04:16:59;100661.38;;;-0.25;100.00
55759;BME280;41678;52.126;20.664;2023-11-19T04:22:19;100663.16;;;-0.24;100.00
55759;BME280;41678;52.126;20.664;2023-11-19T04:27:38;100660.56;;;-0.24;100.00
55759;BME280;41678;52.126;20.664;2023-11-19T04:33:01;100648.56;;;-0.22;100.00
55759;BME280;41678;52.126;20.664;2023-11-19T04:38:21;100648.56;;;-0.22;100.00
55759;BME280;41678;52.126;20.664;2023-11-19T04:43:40;100642.44;;;-0.24;100.00
55759;BME280;41678;52.126;20.664;2023-11-19T04:49:00;100627.84;;;-0.22;100.00
55759;BME280;41678;52.126;20.664;2023-11-19T04:54:19;100608.09;;;-0.20;100.00
55759;BME280;41678;52.126;20.664;2023-11-19T04:59:39;100607.97;;;-0.23;100.00
55759;BME280;41678;52.126;20.664;2023-11-19T05:04:58;100614.97;;;-0.20;100.00
55759;BME280;41678;52.126;20.664;2023-11-19T05:10:18;100596.88;;;-0.20;100.00
55759;BME280;41678;52.126;20.664;2023-11-19T05:15:38;100584.63;;;-0.24;100.00
55759;BME280;41678;52.126;20.664;2023-11-19T05:20:58;100590.88;;;-0.19;100.00
55759;BME280;41678;52.126;20.664;2023-11-19T05:26:23;100578.69;;;-0.22;100.00
55759;BME280;41678;52.126;20.664;2023-11-19T05:31:42;100583.97;;;-0.19;100.00
55759;BME280;41678;52.126;20.664;2023-11-19T05:37:02;100575.22;;;-0.22;100.00
55759;BME280;41678;52.126;20.664;2023-11-19T05:42:22;100574.41;;;-0.21;100.00
55759;BME280;41678;52.126;20.664;2023-11-19T05:47:42;100566.47;;;-0.26;100.00
55759;BME280;41678;52.126;20.664;2023-11-19T05:53:03;100557.88;;;-0.25;100.00
55759;BME280;41678;52.126;20.664;2023-11-19T05:58:25;100566.63;;;-0.21;100.00
55759;BME280;41678;52.126;20.664;2023-11-19T06:03:47;100565.81;;;-0.20;100.00
55759;BME280;41678;52.126;20.664;2023-11-19T06:09:09;100558.03;;;-0.20;100.00
55759;BME280;41678;52.126;20.664;2023-11-19T06:14:29;100563.16;;;-0.22;100.00
55759;BME280;41678;52.126;20.664;2023-11-19T06:19:48;100541.50;;;-0.24;100.00
55759;BME280;41678;52.126;20.664;2023-11-19T06:25:09;100540.78;;;-0.20;100.00
55759;BME280;41678;52.126;20.664;2023-11-19T06:30:28;100523.41;;;-0.24;100.00
55759;BME280;41678;52.126;20.664;2023-11-19T06:35:50;100517.31;;;-0.24;100.00
55759;BME280;41678;52.126;20.664;2023-11-19T06:41:10;100516.47;;;-0.25;100.00
55759;BME280;41678;52.126;20.664;2023-11-19T06:46:29;100504.34;;;-0.26;100.00
55759;BME280;41678;52.126;20.664;2023-11-19T06:51:49;100507.88;;;-0.24;100.00
55759;BME280;41678;52.126;20.664;2023-11-19T06:57:08;100505.22;;;-0.25;100.00
55759;BME280;41678;52.126;20.664;2023-11-19T07:02:30;100495.75;;;-0.25;100.00
55759;BME280;41678;52.126;20.664;2023-11-19T07:07:50;100493.09;;;-0.26;100.00
55759;BME280;41678;52.126;20.664;2023-11-19T07:13:09;100484.41;;;-0.29;100.00
55759;BME280;41678;52.126;20.664;2023-11-19T07:18:29;100488.81;;;-0.26;100.00
55759;BME280;41678;52.126;20.664;2023-11-19T07:23:48;100472.50;;;-0.23;100.00
55759;BME280;41678;52.126;20.664;2023-11-19T07:29:09;100460.41;;;-0.24;100.00
55759;BME280;41678;52.126;20.664;2023-11-19T07:34:30;100455.22;;;-0.24;100.00
55759;BME280;41678;52.126;20.664;2023-11-19T07:39:49;100443.25;;;-0.22;100.00
55759;BME280;41678;52.126;20.664;2023-11-19T07:45:09;100443.25;;;-0.22;100.00
55759;BME280;41678;52.126;20.664;2023-11-19T07:50:29;100431.00;;;-0.26;100.00
55759;BME280;41678;52.126;20.664;2023-11-19T07:55:50;100432.06;;;-0.21;100.00
55759;BME280;41678;52.126;20.664;2023-11-19T08:01:10;100426.81;;;-0.23;100.00
55759;BME280;41678;52.126;20.664;2023-11-19T08:06:30;100426.06;;;-0.20;100.00
55759;BME280;41678;52.126;20.664;2023-11-19T08:11:49;100418.31;;;-0.19;100.00
55759;BME280;41678;52.126;20.664;2023-11-19T08:17:09;100400.31;;;-0.16;100.00
55759;BME280;41678;52.126;20.664;2023-11-19T08:22:29;100392.66;;;-0.12;100.00
55759;BME280;41678;52.126;20.664;2023-11-19T08:27:48;100385.72;;;-0.13;100.00
55759;BME280;41678;52.126;20.664;2023-11-19T08:33:08;100373.66;;;-0.13;100.00
55759;BME280;41678;52.126;20.664;2023-11-19T08:38:27;100377.44;;;-0.03;100.00
55759;BME280;41678;52.126;20.664;2023-11-19T08:43:46;100385.09;;;-0.06;100.00
55759;BME280;41678;52.126;20.664;2023-11-19T08:49:06;100352.19;;;-0.10;100.00
55759;BME280;41678;52.126;20.664;2023-11-19T08:54:28;100352.59;;;0.02;100.00
55759;BME280;41678;52.126;20.664;2023-11-19T08:59:47;100339.75;;;0.05;100.00
55759;BME280;41678;52.126;20.664;2023-11-19T09:05:07;100331.13;;;0.06;100.00
55759;BME280;41678;52.126;20.664;2023-11-19T09:10:27;100319.28;;;0.14;100.00
55759;BME280;41678;52.126;20.664;2023-11-19T09:15:48;100311.44;;;0.11;100.00
55759;BME280;41678;52.126;20.664;2023-11-19T09:21:10;100305.34;;;0.09;100.00
55759;BME280;41678;52.126;20.664;2023-11-19T09:26:30;100294.00;;;0.06;100.00
55759;BME280;41678;52.126;20.664;2023-11-19T09:31:50;100289.81;;;0.09;100.00
55759;BME280;41678;52.126;20.664;2023-11-19T09:37:09;100288.97;;;0.10;100.00
55759;BME280;41678;52.126;20.664;2023-11-19T09:42:29;100284.84;;;0.16;100.00
55759;BME280;41678;52.126;20.664;2023-11-19T09:47:52;100277.88;;;0.14;100.00
55759;BME280;41678;52.126;20.664;2023-11-19T09:53:12;100267.63;;;0.18;100.00
55759;BME280;41678;52.126;20.664;2023-11-19T09:58:32;100255.59;;;0.20;100.00
55759;BME280;41678;52.126;20.664;2023-11-19T10:03:55;100239.16;;;0.19;100.00
55759;BME280;41678;52.126;20.664;2023-11-19T10:09:15;100225.38;;;0.19;100.00
55759;BME280;41678;52.126;20.664;2023-11-19T10:14:37;100243.56;;;0.22;100.00
55759;BME280;41678;52.126;20.664;2023-11-19T10:19:59;100229.78;;;0.23;100.00
55759;BME280;41678;52.126;20.664;2023-11-19T10:25:25;100226.38;;;0.24;100.00
55759;BME280;41678;52.126;20.664;2023-11-19T10:30:48;100200.47;;;0.24;100.00
55759;BME280;41678;52.126;20.664;2023-11-19T10:36:07;100192.69;;;0.24;100.00
55759;BME280;41678;52.126;20.664;2023-11-19T10:41:31;100184.19;;;0.28;100.00
55759;BME280;41678;52.126;20.664;2023-11-19T10:46:53;100153.72;;;0.19;100.00
55759;BME280;41678;52.126;20.664;2023-11-19T10:52:17;100155.69;;;0.28;100.00
55759;BME280;41678;52.126;20.664;2023-11-19T10:57:40;100142.78;;;0.30;100.00
55759;BME280;41678;52.126;20.664;2023-11-19T11:03:09;100113.41;;;0.29;100.00
55759;BME280;41678;52.126;20.664;2023-11-19T11:08:30;100117.03;;;0.34;100.00
55759;BME280;41678;52.126;20.664;2023-11-19T11:13:50;100096.38;;;0.37;100.00
55759;BME280;41678;52.126;20.664;2023-11-19T11:19:11;100085.19;;;0.38;100.00
55759;BME280;41678;52.126;20.664;2023-11-19T11:24:55;100067.94;;;0.39;100.00
55759;BME280;41678;52.126;20.664;2023-11-19T11:30:31;100059.34;;;0.41;100.00
55759;BME280;41678;52.126;20.664;2023-11-19T11:36:30;100043.03;;;0.44;100.00
55759;BME280;41678;52.126;20.664;2023-11-19T11:58:27;100008.56;;;0.47;100.00
55759;BME280;41678;52.126;20.664;2023-11-19T12:03:50;100003.38;;;0.47;100.00
55759;BME280;41678;52.126;20.664;2023-11-19T12:09:11;99978.16;;;0.39;100.00
55759;BME280;41678;52.126;20.664;2023-11-19T12:14:59;99981.09;;;0.53;100.00
55759;BME280;41678;52.126;20.664;2023-11-19T12:20:22;99977.53;;;0.50;100.00
55759;BME280;41678;52.126;20.664;2023-11-19T12:25:41;99973.22;;;0.49;100.00
55759;BME280;41678;52.126;20.664;2023-11-19T12:31:08;99966.16;;;0.45;100.00
55759;BME280;41678;52.126;20.664;2023-11-19T12:36:28;99959.25;;;0.44;100.00
55759;BME280;41678;52.126;20.664;2023-11-19T12:41:49;99962.72;;;0.44;100.00
55759;BME280;41678;52.126;20.664;2023-11-19T12:47:09;99948.16;;;0.49;100.00
55759;BME280;41678;52.126;20.664;2023-11-19T12:52:30;99949.78;;;0.44;100.00
55759;BME280;41678;52.126;20.664;2023-11-19T12:57:50;99934.94;;;0.38;100.00
55759;BME280;41678;52.126;20.664;2023-11-19T13:03:10;99912.53;;;0.39;100.00
55759;BME280;41678;52.126;20.664;2023-11-19T13:14:20;99882.47;;;0.46;100.00
55759;BME280;41678;52.126;20.664;2023-11-19T13:19:40;99877.19;;;0.42;100.00
55759;BME280;41678;52.126;20.664;2023-11-19T13:25:14;99859.06;;;0.42;100.00
55759;BME280;41678;52.126;20.664;2023-11-19T13:30:34;99854.78;;;0.43;100.00
55759;BME280;41678;52.126;20.664;2023-11-19T13:35:53;99842.50;;;0.36;100.00
55759;BME280;41678;52.126;20.664;2023-11-19T13:41:13;99837.50;;;0.44;100.00
55759;BME280;41678;52.126;20.664;2023-11-19T13:46:33;99834.84;;;0.39;100.00
55759;BME280;41678;52.126;20.664;2023-11-19T13:51:52;99829.66;;;0.40;100.00
55759;BME280;41678;52.126;20.664;2023-11-19T13:57:13;99829.66;;;0.40;100.00
55759;BME280;41678;52.126;20.664;2023-11-19T14:02:33;99814.97;;;0.39;100.00
55759;BME280;41678;52.126;20.664;2023-11-19T14:07:52;99811.63;;;0.45;100.00
55759;BME280;41678;52.126;20.664;2023-11-19T14:13:13;99801.97;;;0.36;100.00
55759;BME280;41678;52.126;20.664;2023-11-19T14:18:34;99795.03;;;0.35;100.00
55759;BME280;41678;52.126;20.664;2023-11-19T14:23:54;99789.16;;;0.44;100.00
55759;BME280;41678;52.126;20.664;2023-11-19T14:29:14;99793.47;;;0.44;100.00
55759;BME280;41678;52.126;20.664;2023-11-19T14:34:33;99781.19;;;0.33;100.00
55759;BME280;41678;52.126;20.664;2023-11-19T14:39:53;99775.09;;;0.33;100.00
55759;BME280;41678;52.126;20.664;2023-11-19T14:45:12;99779.56;;;0.38;100.00
55759;BME280;41678;52.126;20.664;2023-11-19T14:50:32;99766.47;;;0.32;100.00
55759;BME280;41678;52.126;20.664;2023-11-19T14:55:51;99745.72;;;0.31;100.00
55759;BME280;41678;52.126;20.664;2023-11-19T15:01:12;99738.84;;;0.33;100.00
55759;BME280;41678;52.126;20.664;2023-11-19T15:06:31;99749.19;;;0.31;100.00
55759;BME280;41678;52.126;20.664;2023-11-19T15:11:56;99751.63;;;0.25;100.00
55759;BME280;41678;52.126;20.664;2023-11-19T15:17:17;99761.09;;;0.23;100.00
55759;BME280;41678;52.126;20.664;2023-11-19T15:22:37;99752.38;;;0.19;100.00
55759;BME280;41678;52.126;20.664;2023-11-19T15:27:56;99755.81;;;0.18;100.00
55759;BME280;41678;52.126;20.664;2023-11-19T15:33:16;99752.25;;;0.14;100.00
55759;BME280;41678;52.126;20.664;2023-11-19T15:38:36;99763.56;;;0.18;100.00
55759;BME280;41678;52.126;20.664;2023-11-19T15:43:55;99748.88;;;0.17;100.00
55759;BME280;41678;52.126;20.664;2023-11-19T15:49:15;99741.94;;;0.16;100.00
55759;BME280;41678;52.126;20.664;2023-11-19T15:54:35;99727.31;;;0.17;100.00
55759;BME280;41678;52.126;20.664;2023-11-19T15:59:56;99716.84;;;0.13;100.00
55759;BME280;41678;52.126;20.664;2023-11-19T16:05:40;99728.91;;;0.11;100.00
55759;BME280;41678;52.126;20.664;2023-11-19T16:11:00;99722.03;;;0.13;100.00
55759;BME280;41678;52.126;20.664;2023-11-19T16:16:20;99715.31;;;0.22;100.00
55759;BME280;41678;52.126;20.664;2023-11-19T16:21:40;99718.59;;;0.14;100.00
55759;BME280;41678;52.126;20.664;2023-11-19T16:27:00;99713.34;;;0.10;100.00
55759;BME280;41678;52.126;20.664;2023-11-19T16:32:19;99704.75;;;0.12;100.00
55759;BME280;41678;52.126;20.664;2023-11-19T16:37:38;99706.59;;;0.17;100.00
55759;BME280;41678;52.126;20.664;2023-11-19T16:42:59;99688.38;;;0.13;100.00
55759;BME280;41678;52.126;20.664;2023-11-19T16:48:19;99690.91;;;0.10;100.00
55759;BME280;41678;52.126;20.664;2023-11-19T16:53:38;99679.78;;;0.14;100.00
55759;BME280;41678;52.126;20.664;2023-11-19T16:58:58;99677.97;;;0.10;100.00
55759;BME280;41678;52.126;20.664;2023-11-19T17:04:41;99676.22;;;0.09;100.00
55759;BME280;41678;52.126;20.664;2023-11-19T17:10:06;99670.19;;;0.10;100.00
55759;BME280;41678;52.126;20.664;2023-11-19T17:15:27;99663.34;;;0.12;100.00
55759;BME280;41678;52.126;20.664;2023-11-19T17:20:48;99664.22;;;0.14;100.00
55759;BME280;41678;52.126;20.664;2023-11-19T17:26:09;99666.00;;;0.16;100.00
55759;BME280;41678;52.126;20.664;2023-11-19T17:31:33;99651.28;;;0.14;100.00
55759;BME280;41678;52.126;20.664;2023-11-19T17:36:54;99642.63;;;0.12;100.00
55759;BME280;41678;52.126;20.664;2023-11-19T17:42:13;99636.59;;;0.12;100.00
55759;BME280;41678;52.126;20.664;2023-11-19T17:47:33;99630.53;;;0.11;100.00
55759;BME280;41678;52.126;20.664;2023-11-19T17:52:54;99623.66;;;0.12;100.00
55759;BME280;41678;52.126;20.664;2023-11-19T17:58:13;99625.50;;;0.18;100.00
55759;BME280;41678;52.126;20.664;2023-11-19T18:03:33;99629.63;;;0.09;100.00
55759;BME280;41678;52.126;20.664;2023-11-19T18:08:53;99627.09;;;0.12;100.00
55759;BME280;41678;52.126;20.664;2023-11-19T18:14:12;99623.59;;;0.10;100.00
55759;BME280;41678;52.126;20.664;2023-11-19T18:19:32;99616.72;;;0.12;100.00
55759;BME280;41678;52.126;20.664;2023-11-19T18:24:52;99601.16;;;0.09;100.00
55759;BME280;41678;52.126;20.664;2023-11-19T18:30:12;99599.41;;;0.08;100.00
55759;BME280;41678;52.126;20.664;2023-11-19T18:35:33;99591.69;;;0.10;100.00
55759;BME280;41678;52.126;20.664;2023-11-19T18:40:53;99582.19;;;0.10;100.00
55759;BME280;41678;52.126;20.664;2023-11-19T18:46:13;99570.88;;;0.07;100.00
55759;BME280;41678;52.126;20.664;2023-11-19T18:51:32;99573.47;;;0.05;100.00
55759;BME280;41678;52.126;20.664;2023-11-19T18:57:30;99572.69;;;0.09;100.00
55759;BME280;41678;52.126;20.664;2023-11-19T19:02:50;99572.81;;;0.17;100.00
55759;BME280;41678;52.126;20.664;2023-11-19T19:08:10;99560.53;;;0.05;100.00
55759;BME280;41678;52.126;20.664;2023-11-19T19:13:29;99553.66;;;0.07;100.00
55759;BME280;41678;52.126;20.664;2023-11-19T19:18:49;99562.25;;;0.06;100.00
55759;BME280;41678;52.126;20.664;2023-11-19T19:24:09;99557.13;;;0.09;100.00
55759;BME280;41678;52.126;20.664;2023-11-19T19:29:29;99549.44;;;0.12;100.00
55759;BME280;41678;52.126;20.664;2023-11-19T19:34:49;99537.31;;;0.10;100.00
55759;BME280;41678;52.126;20.664;2023-11-19T19:40:10;99533.09;;;0.15;100.00
55759;BME280;41678;52.126;20.664;2023-11-19T19:45:30;99526.25;;;0.19;100.00
55759;BME280;41678;52.126;20.664;2023-11-19T19:50:50;99524.44;;;0.14;100.00
55759;BME280;41678;52.126;20.664;2023-11-19T19:56:09;99514.03;;;0.11;100.00
55759;BME280;41678;52.126;20.664;2023-11-19T20:01:29;99508.00;;;0.12;100.00
55759;BME280;41678;52.126;20.664;2023-11-19T20:06:48;99497.66;;;0.12;100.00
55759;BME280;41678;52.126;20.664;2023-11-19T20:12:09;99502.91;;;0.16;100.00
55759;BME280;41678;52.126;20.664;2023-11-19T20:17:28;99513.25;;;0.16;100.00
55759;BME280;41678;52.126;20.664;2023-11-19T20:22:48;99509.88;;;0.20;100.00
55759;BME280;41678;52.126;20.664;2023-11-19T20:28:09;99507.28;;;0.20;100.00
55759;BME280;41678;52.126;20.664;2023-11-19T20:33:30;99514.22;;;0.22;100.00
55759;BME280;41678;52.126;20.664;2023-11-19T20:38:49;99489.13;;;0.17;100.00
55759;BME280;41678;52.126;20.664;2023-11-19T20:44:10;99497.81;;;0.22;100.00
55759;BME280;41678;52.126;20.664;2023-11-19T20:49:31;99480.50;;;0.19;100.00
55759;BME280;41678;52.126;20.664;2023-11-19T20:54:50;99477.97;;;0.21;100.00
55759;BME280;41678;52.126;20.664;2023-11-19T21:00:10;99484.91;;;0.23;100.00
55759;BME280;41678;52.126;20.664;2023-11-19T21:05:31;99472.03;;;0.28;100.00
55759;BME280;41678;52.126;20.664;2023-11-19T21:10:51;99472.03;;;0.28;100.00
55759;BME280;41678;52.126;20.664;2023-11-19T21:16:10;99480.72;;;0.32;100.00
55759;BME280;41678;52.126;20.664;2023-11-19T21:21:30;99462.56;;;0.28;100.00
55759;BME280;41678;52.126;20.664;2023-11-19T21:26:50;99459.94;;;0.27;100.00
55759;BME280;41678;52.126;20.664;2023-11-19T21:32:10;99453.13;;;0.32;100.00
55759;BME280;41678;52.126;20.664;2023-11-19T21:37:30;99444.50;;;0.33;100.00
55759;BME280;41678;52.126;20.664;2023-11-19T21:42:49;99440.28;;;0.38;100.00
55759;BME280;41678;52.126;20.664;2023-11-19T21:48:11;99442.88;;;0.38;100.00
55759;BME280;41678;52.126;20.664;2023-11-19T21:53:31;99441.13;;;0.37;100.00
55759;BME280;41678;52.126;20.664;2023-11-19T21:58:50;99445.41;;;0.37;100.00
55759;BME280;41678;52.126;20.664;2023-11-19T22:04:10;99449.78;;;0.39;100.00
55759;BME280;41678;52.126;20.664;2023-11-19T22:09:29;99422.16;;;0.38;100.00
55759;BME280;41678;52.126;20.664;2023-11-19T22:14:49;99411.81;;;0.41;100.00
55759;BME280;41678;52.126;20.664;2023-11-19T22:20:09;99417.88;;;0.42;100.00
55759;BME280;41678;52.126;20.664;2023-11-19T22:25:30;99424.88;;;0.48;100.00
55759;BME280;41678;52.126;20.664;2023-11-19T22:30:49;99417.91;;;0.44;100.00
55759;BME280;41678;52.126;20.664;2023-11-19T22:36:10;99407.53;;;0.42;100.00
55759;BME280;41678;52.126;20.664;2023-11-19T22:41:30;99402.34;;;0.42;100.00
55759;BME280;41678;52.126;20.664;2023-11-19T22:46:49;99401.50;;;0.45;100.00
55759;BME280;41678;52.126;20.664;2023-11-19T22:52:08;99396.41;;;0.48;100.00
55759;BME280;41678;52.126;20.664;2023-11-19T22:57:28;99385.94;;;0.41;100.00
55759;BME280;41678;52.126;20.664;2023-11-19T23:02:48;99396.44;;;0.51;100.00
55759;BME280;41678;52.126;20.664;2023-11-19T23:08:07;99397.28;;;0.50;100.00
55759;BME280;41678;52.126;20.664;2023-11-19T23:13:30;99396.44;;;0.51;100.00
55759;BME280;41678;52.126;20.664;2023-11-19T23:18:50;99386.94;;;0.50;100.00
55759;BME280;41678;52.126;20.664;2023-11-19T23:24:10;99394.69;;;0.51;100.00
55759;BME280;41678;52.126;20.664;2023-11-19T23:29:30;99395.66;;;0.56;100.00
55759;BME280;41678;52.126;20.664;2023-11-19T23:34:49;99394.75;;;0.53;100.00
55759;BME280;41678;52.126;20.664;2023-11-19T23:40:09;99367.03;;;0.46;100.00
55759;BME280;41678;52.126;20.664;2023-11-19T23:45:29;99381.78;;;0.53;100.00
55759;BME280;41678;52.126;20.664;2023-11-19T23:50:49;99382.69;;;0.55;100.00
55759;BME280;41678;52.126;20.664;2023-11-19T23:56:08;99384.34;;;0.50;100.00
